sensor_id;sensor_type;location;lat;lon;timestamp;P1;durP1;ratioP1;P2;durP2;ratioP2
26391;SDS011;14572;43.120;1.178;2022-12-18T00:00:59;32.08;;;2.00;;
26391;SDS011;14572;43.120;1.178;2022-12-18T00:03:31;22.38;;;2.25;;
26391;SDS011;14572;43.120;1.178;2022-12-18T00:05:58;11.13;;;1.90;;
26391;SDS011;14572;43.120;1.178;2022-12-18T00:08:25;3.67;;;1.90;;
26391;SDS011;14572;43.120;1.178;2022-12-18T00:10:52;5.78;;;1.77;;
26391;SDS011;14572;43.120;1.178;2022-12-18T00:13:21;83.20;;;3.30;;
26391;SDS011;14572;43.120;1.178;2022-12-18T00:15:48;9.05;;;2.22;;
26391;SDS011;14572;43.120;1.178;2022-12-18T00:18:15;9.55;;;1.77;;
26391;SDS011;14572;43.120;1.178;2022-12-18T00:20:42;14.45;;;2.80;;
26391;SDS011;14572;43.120;1.178;2022-12-18T00:23:09;17.45;;;2.70;;
26391;SDS011;14572;43.120;1.178;2022-12-18T00:25:36;30.58;;;2.22;;
26391;SDS011;14572;43.120;1.178;2022-12-18T00:28:03;41.53;;;2.45;;
26391;SDS011;14572;43.120;1.178;2022-12-18T00:30:32;44.58;;;2.03;;
26391;SDS011;14572;43.120;1.178;2022-12-18T00:32:59;76.05;;;3.00;;
26391;SDS011;14572;43.120;1.178;2022-12-18T00:35:26;8.38;;;2.08;;
26391;SDS011;14572;43.120;1.178;2022-12-18T00:37:53;138.68;;;3.67;;
26391;SDS011;14572;43.120;1.178;2022-12-18T00:40:20;27.40;;;2.03;;
26391;SDS011;14572;43.120;1.178;2022-12-18T00:42:47;29.10;;;2.10;;
26391;SDS011;14572;43.120;1.178;2022-12-18T00:45:23;28.70;;;1.83;;
26391;SDS011;14572;43.120;1.178;2022-12-18T00:47:52;8.85;;;1.80;;
26391;SDS011;14572;43.120;1.178;2022-12-18T00:50:19;108.00;;;3.13;;
26391;SDS011;14572;43.120;1.178;2022-12-18T00:52:46;51.75;;;2.78;;
26391;SDS011;14572;43.120;1.178;2022-12-18T00:55:14;105.25;;;3.70;;
26391;SDS011;14572;43.120;1.178;2022-12-18T00:57:41;112.63;;;3.85;;
26391;SDS011;14572;43.120;1.178;2022-12-18T01:00:09;131.30;;;4.78;;
26391;SDS011;14572;43.120;1.178;2022-12-18T01:02:38;40.72;;;2.60;;
26391;SDS011;14572;43.120;1.178;2022-12-18T01:05:07;62.28;;;2.60;;
26391;SDS011;14572;43.120;1.178;2022-12-18T01:07:35;97.53;;;2.90;;
26391;SDS011;14572;43.120;1.178;2022-12-18T01:10:02;61.40;;;2.03;;
26391;SDS011;14572;43.120;1.178;2022-12-18T01:12:29;76.30;;;2.45;;
26391;SDS011;14572;43.120;1.178;2022-12-18T01:14:56;37.40;;;2.03;;
26391;SDS011;14572;43.120;1.178;2022-12-18T01:17:24;75.75;;;2.63;;
26391;SDS011;14572;43.120;1.178;2022-12-18T01:19:51;33.05;;;1.88;;
26391;SDS011;14572;43.120;1.178;2022-12-18T01:22:19;14.50;;;1.80;;
26391;SDS011;14572;43.120;1.178;2022-12-18T01:24:46;26.75;;;1.92;;
26391;SDS011;14572;43.120;1.178;2022-12-18T01:27:13;26.20;;;1.98;;
26391;SDS011;14572;43.120;1.178;2022-12-18T01:29:40;16.60;;;1.48;;
26391;SDS011;14572;43.120;1.178;2022-12-18T01:32:08;26.73;;;1.70;;
26391;SDS011;14572;43.120;1.178;2022-12-18T01:34:35;18.88;;;1.50;;
26391;SDS011;14572;43.120;1.178;2022-12-18T01:37:02;22.80;;;1.63;;
26391;SDS011;14572;43.120;1.178;2022-12-18T01:39:31;11.70;;;1.23;;
26391;SDS011;14572;43.120;1.178;2022-12-18T01:41:58;17.88;;;1.45;;
26391;SDS011;14572;43.120;1.178;2022-12-18T01:47:19;1.88;;;1.00;;
26391;SDS011;14572;43.120;1.178;2022-12-18T01:49:48;47.17;;;2.05;;
26391;SDS011;14572;43.120;1.178;2022-12-18T01:52:15;31.42;;;1.75;;
26391;SDS011;14572;43.120;1.178;2022-12-18T01:54:45;24.42;;;1.50;;
26391;SDS011;14572;43.120;1.178;2022-12-18T01:57:13;9.40;;;1.25;;
26391;SDS011;14572;43.120;1.178;2022-12-18T01:59:40;18.60;;;1.30;;
26391;SDS011;14572;43.120;1.178;2022-12-18T02:02:08;31.55;;;1.90;;
26391;SDS011;14572;43.120;1.178;2022-12-18T02:04:35;13.15;;;1.35;;
26391;SDS011;14572;43.120;1.178;2022-12-18T02:07:03;4.15;;;0.98;;
26391;SDS011;14572;43.120;1.178;2022-12-18T02:09:36;1.75;;;0.90;;
26391;SDS011;14572;43.120;1.178;2022-12-18T02:12:13;9.70;;;2.22;;
26391;SDS011;14572;43.120;1.178;2022-12-18T02:14:44;6.80;;;1.75;;
26391;SDS011;14572;43.120;1.178;2022-12-18T02:17:14;10.13;;;1.20;;
26391;SDS011;14572;43.120;1.178;2022-12-18T02:19:47;6.70;;;1.10;;
26391;SDS011;14572;43.120;1.178;2022-12-18T02:22:26;6.60;;;1.20;;
26391;SDS011;14572;43.120;1.178;2022-12-18T02:25:06;18.88;;;1.85;;
26391;SDS011;14572;43.120;1.178;2022-12-18T02:27:42;51.20;;;2.00;;
26391;SDS011;14572;43.120;1.178;2022-12-18T02:30:11;47.97;;;1.50;;
26391;SDS011;14572;43.120;1.178;2022-12-18T02:32:41;54.97;;;1.58;;
26391;SDS011;14572;43.120;1.178;2022-12-18T02:35:11;65.97;;;1.83;;
26391;SDS011;14572;43.120;1.178;2022-12-18T02:37:39;69.35;;;1.75;;
26391;SDS011;14572;43.120;1.178;2022-12-18T02:40:08;72.38;;;1.60;;
26391;SDS011;14572;43.120;1.178;2022-12-18T02:42:36;34.17;;;1.02;;
26391;SDS011;14572;43.120;1.178;2022-12-18T02:45:06;28.40;;;1.20;;
26391;SDS011;14572;43.120;1.178;2022-12-18T02:47:34;9.50;;;0.90;;
26391;SDS011;14572;43.120;1.178;2022-12-18T02:50:06;14.18;;;0.90;;
26391;SDS011;14572;43.120;1.178;2022-12-18T02:52:38;12.10;;;0.90;;
26391;SDS011;14572;43.120;1.178;2022-12-18T02:55:15;18.25;;;1.02;;
26391;SDS011;14572;43.120;1.178;2022-12-18T02:57:46;89.80;;;1.88;;
26391;SDS011;14572;43.120;1.178;2022-12-18T03:00:18;48.63;;;1.45;;
26391;SDS011;14572;43.120;1.178;2022-12-18T03:02:47;12.00;;;1.02;;
26391;SDS011;14572;43.120;1.178;2022-12-18T03:05:18;21.23;;;0.95;;
26391;SDS011;14572;43.120;1.178;2022-12-18T03:07:49;9.52;;;1.02;;
26391;SDS011;14572;43.120;1.178;2022-12-18T03:10:19;19.27;;;1.10;;
26391;SDS011;14572;43.120;1.178;2022-12-18T03:12:51;101.13;;;3.17;;
26391;SDS011;14572;43.120;1.178;2022-12-18T03:15:22;33.13;;;1.58;;
26391;SDS011;14572;43.120;1.178;2022-12-18T03:17:52;107.63;;;2.65;;
26391;SDS011;14572;43.120;1.178;2022-12-18T03:20:21;81.70;;;2.50;;
26391;SDS011;14572;43.120;1.178;2022-12-18T03:22:51;47.25;;;2.33;;
26391;SDS011;14572;43.120;1.178;2022-12-18T03:25:20;46.03;;;2.15;;
26391;SDS011;14572;43.120;1.178;2022-12-18T03:27:49;48.97;;;1.67;;
26391;SDS011;14572;43.120;1.178;2022-12-18T03:30:18;36.00;;;1.60;;
26391;SDS011;14572;43.120;1.178;2022-12-18T03:32:48;33.80;;;1.40;;
26391;SDS011;14572;43.120;1.178;2022-12-18T03:35:19;13.23;;;1.20;;
26391;SDS011;14572;43.120;1.178;2022-12-18T03:37:48;8.80;;;1.00;;
26391;SDS011;14572;43.120;1.178;2022-12-18T03:40:15;12.10;;;1.10;;
26391;SDS011;14572;43.120;1.178;2022-12-18T03:42:45;22.23;;;1.20;;
26391;SDS011;14572;43.120;1.178;2022-12-18T03:45:16;9.17;;;0.70;;
26391;SDS011;14572;43.120;1.178;2022-12-18T03:47:49;66.40;;;2.40;;
26391;SDS011;14572;43.120;1.178;2022-12-18T03:50:22;55.73;;;2.10;;
26391;SDS011;14572;43.120;1.178;2022-12-18T03:52:54;89.03;;;2.37;;
26391;SDS011;14572;43.120;1.178;2022-12-18T03:55:24;69.73;;;2.10;;
26391;SDS011;14572;43.120;1.178;2022-12-18T03:57:52;58.40;;;1.88;;
26391;SDS011;14572;43.120;1.178;2022-12-18T04:00:20;25.37;;;1.33;;
26391;SDS011;14572;43.120;1.178;2022-12-18T04:02:50;16.00;;;1.20;;
26391;SDS011;14572;43.120;1.178;2022-12-18T04:05:19;11.90;;;1.10;;
26391;SDS011;14572;43.120;1.178;2022-12-18T04:07:47;1.20;;;0.80;;
26391;SDS011;14572;43.120;1.178;2022-12-18T04:10:15;4.20;;;0.90;;
26391;SDS011;14572;43.120;1.178;2022-12-18T04:12:43;3.60;;;0.60;;
26391;SDS011;14572;43.120;1.178;2022-12-18T04:15:10;1.27;;;0.57;;
26391;SDS011;14572;43.120;1.178;2022-12-18T04:17:38;10.63;;;0.80;;
26391;SDS011;14572;43.120;1.178;2022-12-18T04:20:10;14.13;;;0.70;;
26391;SDS011;14572;43.120;1.178;2022-12-18T04:22:37;17.80;;;0.70;;
26391;SDS011;14572;43.120;1.178;2022-12-18T04:25:04;65.20;;;1.50;;
26391;SDS011;14572;43.120;1.178;2022-12-18T04:27:32;15.80;;;0.93;;
26391;SDS011;14572;43.120;1.178;2022-12-18T04:29:59;11.00;;;0.57;;
26391;SDS011;14572;43.120;1.178;2022-12-18T04:32:26;6.93;;;0.50;;
26391;SDS011;14572;43.120;1.178;2022-12-18T04:34:53;3.23;;;0.50;;
26391;SDS011;14572;43.120;1.178;2022-12-18T04:37:22;12.97;;;0.80;;
26391;SDS011;14572;43.120;1.178;2022-12-18T04:39:49;2.00;;;0.70;;
26391;SDS011;14572;43.120;1.178;2022-12-18T04:42:16;2.50;;;0.63;;
26391;SDS011;14572;43.120;1.178;2022-12-18T04:44:43;1.37;;;0.60;;
26391;SDS011;14572;43.120;1.178;2022-12-18T04:47:10;0.87;;;0.70;;
26391;SDS011;14572;43.120;1.178;2022-12-18T04:49:37;5.23;;;0.70;;
26391;SDS011;14572;43.120;1.178;2022-12-18T04:52:04;1.13;;;0.80;;
26391;SDS011;14572;43.120;1.178;2022-12-18T04:54:33;1.00;;;0.70;;
26391;SDS011;14572;43.120;1.178;2022-12-18T04:57:00;1.97;;;0.83;;
26391;SDS011;14572;43.120;1.178;2022-12-18T04:59:27;0.40;;;0.40;;
26391;SDS011;14572;43.120;1.178;2022-12-18T05:01:54;4.33;;;1.17;;
26391;SDS011;14572;43.120;1.178;2022-12-18T05:04:21;3.40;;;0.67;;
26391;SDS011;14572;43.120;1.178;2022-12-18T05:06:48;0.83;;;0.73;;
26391;SDS011;14572;43.120;1.178;2022-12-18T05:09:15;1.10;;;0.70;;
26391;SDS011;14572;43.120;1.178;2022-12-18T05:11:44;10.67;;;2.80;;
26391;SDS011;14572;43.120;1.178;2022-12-18T05:14:11;1.53;;;1.00;;
26391;SDS011;14572;43.120;1.178;2022-12-18T05:16:38;2.90;;;1.13;;
26391;SDS011;14572;43.120;1.178;2022-12-18T05:19:06;1.13;;;0.80;;
26391;SDS011;14572;43.120;1.178;2022-12-18T05:21:33;5.73;;;0.83;;
26391;SDS011;14572;43.120;1.178;2022-12-18T05:24:00;1.10;;;0.70;;
26391;SDS011;14572;43.120;1.178;2022-12-18T05:26:27;2.13;;;0.90;;
26391;SDS011;14572;43.120;1.178;2022-12-18T05:28:55;3.47;;;0.73;;
26391;SDS011;14572;43.120;1.178;2022-12-18T05:31:22;1.60;;;1.00;;
26391;SDS011;14572;43.120;1.178;2022-12-18T05:33:49;3.10;;;1.10;;
26391;SDS011;14572;43.120;1.178;2022-12-18T05:36:16;4.27;;;1.80;;
26391;SDS011;14572;43.120;1.178;2022-12-18T05:38:44;2.93;;;1.20;;
26391;SDS011;14572;43.120;1.178;2022-12-18T05:41:11;1.30;;;1.00;;
26391;SDS011;14572;43.120;1.178;2022-12-18T05:43:38;5.87;;;2.73;;
26391;SDS011;14572;43.120;1.178;2022-12-18T05:46:07;10.97;;;4.60;;
26391;SDS011;14572;43.120;1.178;2022-12-18T05:48:35;9.93;;;3.23;;
26391;SDS011;14572;43.120;1.178;2022-12-18T05:51:03;7.10;;;3.60;;
26391;SDS011;14572;43.120;1.178;2022-12-18T05:53:32;7.83;;;3.00;;
26391;SDS011;14572;43.120;1.178;2022-12-18T05:56:00;5.33;;;2.13;;
26391;SDS011;14572;43.120;1.178;2022-12-18T05:58:27;3.20;;;1.53;;
26391;SDS011;14572;43.120;1.178;2022-12-18T06:00:55;3.90;;;1.70;;
26391;SDS011;14572;43.120;1.178;2022-12-18T06:03:23;6.67;;;1.20;;
26391;SDS011;14572;43.120;1.178;2022-12-18T06:05:50;2.80;;;1.47;;
26391;SDS011;14572;43.120;1.178;2022-12-18T06:08:17;6.23;;;1.50;;
26391;SDS011;14572;43.120;1.178;2022-12-18T06:10:49;25.43;;;2.73;;
26391;SDS011;14572;43.120;1.178;2022-12-18T06:13:20;9.00;;;3.07;;
26391;SDS011;14572;43.120;1.178;2022-12-18T06:15:48;7.40;;;3.27;;
26391;SDS011;14572;43.120;1.178;2022-12-18T06:18:15;4.03;;;2.30;;
26391;SDS011;14572;43.120;1.178;2022-12-18T06:20:44;5.50;;;2.07;;
26391;SDS011;14572;43.120;1.178;2022-12-18T06:23:11;3.53;;;2.00;;
26391;SDS011;14572;43.120;1.178;2022-12-18T06:25:38;4.60;;;1.57;;
26391;SDS011;14572;43.120;1.178;2022-12-18T06:28:06;5.87;;;2.07;;
26391;SDS011;14572;43.120;1.178;2022-12-18T06:30:33;2.77;;;1.37;;
26391;SDS011;14572;43.120;1.178;2022-12-18T06:33:01;2.50;;;1.10;;
26391;SDS011;14572;43.120;1.178;2022-12-18T06:35:28;2.77;;;1.10;;
26391;SDS011;14572;43.120;1.178;2022-12-18T06:37:57;3.00;;;1.90;;
26391;SDS011;14572;43.120;1.178;2022-12-18T06:40:24;5.27;;;3.50;;
26391;SDS011;14572;43.120;1.178;2022-12-18T06:42:51;5.97;;;2.93;;
26391;SDS011;14572;43.120;1.178;2022-12-18T06:45:18;4.67;;;1.90;;
26391;SDS011;14572;43.120;1.178;2022-12-18T06:47:45;5.27;;;1.40;;
26391;SDS011;14572;43.120;1.178;2022-12-18T06:50:12;5.33;;;1.83;;
26391;SDS011;14572;43.120;1.178;2022-12-18T06:52:39;2.60;;;1.63;;
26391;SDS011;14572;43.120;1.178;2022-12-18T06:55:10;4.47;;;2.10;;
26391;SDS011;14572;43.120;1.178;2022-12-18T06:57:37;3.40;;;1.90;;
26391;SDS011;14572;43.120;1.178;2022-12-18T07:00:05;3.43;;;1.60;;
26391;SDS011;14572;43.120;1.178;2022-12-18T07:02:33;2.80;;;1.80;;
26391;SDS011;14572;43.120;1.178;2022-12-18T07:05:00;3.57;;;1.80;;
26391;SDS011;14572;43.120;1.178;2022-12-18T07:07:28;1.70;;;1.07;;
26391;SDS011;14572;43.120;1.178;2022-12-18T07:09:55;2.43;;;0.80;;
26391;SDS011;14572;43.120;1.178;2022-12-18T07:12:23;0.80;;;0.70;;
26391;SDS011;14572;43.120;1.178;2022-12-18T07:14:50;3.97;;;1.30;;
26391;SDS011;14572;43.120;1.178;2022-12-18T07:17:17;1.63;;;0.90;;
26391;SDS011;14572;43.120;1.178;2022-12-18T07:19:44;1.77;;;0.93;;
26391;SDS011;14572;43.120;1.178;2022-12-18T07:22:11;4.33;;;1.03;;
26391;SDS011;14572;43.120;1.178;2022-12-18T07:24:39;4.20;;;0.90;;
26391;SDS011;14572;43.120;1.178;2022-12-18T07:27:06;2.67;;;0.80;;
26391;SDS011;14572;43.120;1.178;2022-12-18T07:29:34;3.17;;;0.90;;
26391;SDS011;14572;43.120;1.178;2022-12-18T07:32:02;0.90;;;0.70;;
26391;SDS011;14572;43.120;1.178;2022-12-18T07:34:29;1.10;;;0.93;;
26391;SDS011;14572;43.120;1.178;2022-12-18T07:36:56;4.00;;;1.07;;
26391;SDS011;14572;43.120;1.178;2022-12-18T07:39:23;4.57;;;0.90;;
26391;SDS011;14572;43.120;1.178;2022-12-18T07:41:50;2.80;;;0.93;;
26391;SDS011;14572;43.120;1.178;2022-12-18T07:44:31;2.30;;;0.90;;
26391;SDS011;14572;43.120;1.178;2022-12-18T07:46:59;2.03;;;1.13;;
26391;SDS011;14572;43.120;1.178;2022-12-18T07:49:27;3.13;;;1.00;;
26391;SDS011;14572;43.120;1.178;2022-12-18T07:51:54;1.37;;;1.10;;
26391;SDS011;14572;43.120;1.178;2022-12-18T07:54:21;2.53;;;1.00;;
26391;SDS011;14572;43.120;1.178;2022-12-18T07:56:49;1.03;;;0.90;;
26391;SDS011;14572;43.120;1.178;2022-12-18T07:59:16;2.77;;;1.20;;
26391;SDS011;14572;43.120;1.178;2022-12-18T08:01:43;0.93;;;0.70;;
26391;SDS011;14572;43.120;1.178;2022-12-18T08:04:12;2.47;;;0.83;;
26391;SDS011;14572;43.120;1.178;2022-12-18T08:06:39;3.50;;;0.90;;
26391;SDS011;14572;43.120;1.178;2022-12-18T08:09:06;5.83;;;1.07;;
26391;SDS011;14572;43.120;1.178;2022-12-18T08:11:34;2.90;;;0.87;;
26391;SDS011;14572;43.120;1.178;2022-12-18T08:14:01;1.63;;;0.90;;
26391;SDS011;14572;43.120;1.178;2022-12-18T08:16:28;4.17;;;0.90;;
26391;SDS011;14572;43.120;1.178;2022-12-18T08:18:55;4.43;;;1.20;;
26391;SDS011;14572;43.120;1.178;2022-12-18T08:21:24;5.07;;;1.27;;
26391;SDS011;14572;43.120;1.178;2022-12-18T08:23:53;6.30;;;1.30;;
26391;SDS011;14572;43.120;1.178;2022-12-18T08:26:21;3.53;;;0.93;;
26391;SDS011;14572;43.120;1.178;2022-12-18T08:28:48;1.23;;;1.03;;
26391;SDS011;14572;43.120;1.178;2022-12-18T08:31:15;3.73;;;1.37;;
26391;SDS011;14572;43.120;1.178;2022-12-18T08:33:42;3.17;;;1.33;;
26391;SDS011;14572;43.120;1.178;2022-12-18T08:36:09;8.77;;;5.23;;
26391;SDS011;14572;43.120;1.178;2022-12-18T08:38:38;8.53;;;2.60;;
26391;SDS011;14572;43.120;1.178;2022-12-18T08:41:06;8.30;;;3.67;;
26391;SDS011;14572;43.120;1.178;2022-12-18T08:43:34;7.00;;;3.50;;
26391;SDS011;14572;43.120;1.178;2022-12-18T08:46:18;6.77;;;3.23;;
26391;SDS011;14572;43.120;1.178;2022-12-18T08:48:46;5.93;;;2.83;;
26391;SDS011;14572;43.120;1.178;2022-12-18T08:51:15;7.47;;;4.73;;
26391;SDS011;14572;43.120;1.178;2022-12-18T08:53:44;5.97;;;2.87;;
26391;SDS011;14572;43.120;1.178;2022-12-18T08:56:12;2.83;;;2.00;;
26391;SDS011;14572;43.120;1.178;2022-12-18T08:58:39;6.60;;;3.30;;
26391;SDS011;14572;43.120;1.178;2022-12-18T09:01:07;15.80;;;5.87;;
26391;SDS011;14572;43.120;1.178;2022-12-18T09:03:37;9.87;;;5.57;;
26391;SDS011;14572;43.120;1.178;2022-12-18T09:06:05;6.37;;;3.60;;
26391;SDS011;14572;43.120;1.178;2022-12-18T09:08:32;4.97;;;2.30;;
26391;SDS011;14572;43.120;1.178;2022-12-18T09:11:03;21.52;;;12.63;;
26391;SDS011;14572;43.120;1.178;2022-12-18T09:13:30;16.42;;;6.65;;
26391;SDS011;14572;43.120;1.178;2022-12-18T09:15:57;8.57;;;5.00;;
26391;SDS011;14572;43.120;1.178;2022-12-18T09:18:24;14.55;;;8.27;;
26391;SDS011;14572;43.120;1.178;2022-12-18T09:20:51;15.83;;;9.57;;
26391;SDS011;14572;43.120;1.178;2022-12-18T09:23:19;18.17;;;8.57;;
26391;SDS011;14572;43.120;1.178;2022-12-18T09:25:46;11.88;;;7.05;;
26391;SDS011;14572;43.120;1.178;2022-12-18T09:28:17;14.13;;;7.32;;
26391;SDS011;14572;43.120;1.178;2022-12-18T09:30:45;13.82;;;5.88;;
26391;SDS011;14572;43.120;1.178;2022-12-18T09:33:15;17.65;;;8.85;;
26391;SDS011;14572;43.120;1.178;2022-12-18T09:35:43;9.60;;;5.97;;
26391;SDS011;14572;43.120;1.178;2022-12-18T09:38:12;8.75;;;4.85;;
26391;SDS011;14572;43.120;1.178;2022-12-18T09:40:42;6.88;;;4.13;;
26391;SDS011;14572;43.120;1.178;2022-12-18T09:43:15;6.70;;;4.57;;
26391;SDS011;14572;43.120;1.178;2022-12-18T09:45:46;7.72;;;5.05;;
26391;SDS011;14572;43.120;1.178;2022-12-18T09:48:16;8.02;;;5.57;;
26391;SDS011;14572;43.120;1.178;2022-12-18T09:50:47;4.38;;;2.60;;
26391;SDS011;14572;43.120;1.178;2022-12-18T09:53:17;3.88;;;2.22;;
26391;SDS011;14572;43.120;1.178;2022-12-18T09:55:47;4.88;;;3.33;;
26391;SDS011;14572;43.120;1.178;2022-12-18T09:58:16;5.50;;;3.00;;
26391;SDS011;14572;43.120;1.178;2022-12-18T10:00:47;4.63;;;2.92;;
26391;SDS011;14572;43.120;1.178;2022-12-18T10:03:15;4.90;;;3.40;;
26391;SDS011;14572;43.120;1.178;2022-12-18T10:05:44;7.47;;;2.80;;
26391;SDS011;14572;43.120;1.178;2022-12-18T10:08:17;3.95;;;2.47;;
26391;SDS011;14572;43.120;1.178;2022-12-18T10:10:47;4.63;;;2.45;;
26391;SDS011;14572;43.120;1.178;2022-12-18T10:13:21;6.28;;;2.22;;
26391;SDS011;14572;43.120;1.178;2022-12-18T10:16:09;2.72;;;1.70;;
26391;SDS011;14572;43.120;1.178;2022-12-18T10:18:54;4.55;;;2.40;;
26391;SDS011;14572;43.120;1.178;2022-12-18T10:21:30;4.25;;;2.67;;
26391;SDS011;14572;43.120;1.178;2022-12-18T10:24:02;5.70;;;2.92;;
26391;SDS011;14572;43.120;1.178;2022-12-18T10:26:35;5.75;;;3.20;;
26391;SDS011;14572;43.120;1.178;2022-12-18T10:29:06;5.35;;;2.75;;
26391;SDS011;14572;43.120;1.178;2022-12-18T10:31:36;5.82;;;3.08;;
26391;SDS011;14572;43.120;1.178;2022-12-18T10:34:03;5.63;;;3.22;;
26391;SDS011;14572;43.120;1.178;2022-12-18T10:36:30;5.53;;;3.13;;
26391;SDS011;14572;43.120;1.178;2022-12-18T10:38:59;4.32;;;2.95;;
26391;SDS011;14572;43.120;1.178;2022-12-18T10:41:41;5.68;;;3.10;;
26391;SDS011;14572;43.120;1.178;2022-12-18T10:44:15;5.63;;;3.25;;
26391;SDS011;14572;43.120;1.178;2022-12-18T10:46:44;4.13;;;2.63;;
26391;SDS011;14572;43.120;1.178;2022-12-18T10:49:22;5.53;;;3.20;;
26391;SDS011;14572;43.120;1.178;2022-12-18T10:51:50;5.97;;;3.00;;
26391;SDS011;14572;43.120;1.178;2022-12-18T10:54:20;9.13;;;4.13;;
26391;SDS011;14572;43.120;1.178;2022-12-18T10:56:49;5.53;;;3.20;;
26391;SDS011;14572;43.120;1.178;2022-12-18T10:59:18;4.90;;;3.20;;
26391;SDS011;14572;43.120;1.178;2022-12-18T11:01:46;6.70;;;4.05;;
26391;SDS011;14572;43.120;1.178;2022-12-18T11:04:19;7.35;;;4.03;;
26391;SDS011;14572;43.120;1.178;2022-12-18T11:06:54;5.47;;;3.70;;
26391;SDS011;14572;43.120;1.178;2022-12-18T11:09:23;6.60;;;3.63;;
26391;SDS011;14572;43.120;1.178;2022-12-18T11:11:52;5.70;;;3.97;;
26391;SDS011;14572;43.120;1.178;2022-12-18T11:14:22;7.43;;;4.18;;
26391;SDS011;14572;43.120;1.178;2022-12-18T11:16:51;7.45;;;4.53;;
26391;SDS011;14572;43.120;1.178;2022-12-18T11:19:20;6.22;;;4.10;;
26391;SDS011;14572;43.120;1.178;2022-12-18T11:21:51;9.52;;;4.40;;
26391;SDS011;14572;43.120;1.178;2022-12-18T11:24:19;8.40;;;4.32;;
26391;SDS011;14572;43.120;1.178;2022-12-18T11:26:48;9.43;;;4.20;;
26391;SDS011;14572;43.120;1.178;2022-12-18T11:29:16;7.25;;;4.28;;
26391;SDS011;14572;43.120;1.178;2022-12-18T11:31:46;6.72;;;3.65;;
26391;SDS011;14572;43.120;1.178;2022-12-18T11:34:15;6.57;;;3.67;;
26391;SDS011;14572;43.120;1.178;2022-12-18T11:36:48;8.32;;;4.28;;
26391;SDS011;14572;43.120;1.178;2022-12-18T11:39:17;6.97;;;3.95;;
26391;SDS011;14572;43.120;1.178;2022-12-18T11:41:47;6.93;;;4.57;;
26391;SDS011;14572;43.120;1.178;2022-12-18T11:44:38;6.47;;;4.50;;
26391;SDS011;14572;43.120;1.178;2022-12-18T11:47:12;7.50;;;4.13;;
26391;SDS011;14572;43.120;1.178;2022-12-18T11:49:42;9.43;;;4.72;;
26391;SDS011;14572;43.120;1.178;2022-12-18T11:52:14;9.05;;;4.25;;
26391;SDS011;14572;43.120;1.178;2022-12-18T11:54:43;6.43;;;4.00;;
26391;SDS011;14572;43.120;1.178;2022-12-18T11:57:11;9.60;;;4.30;;
26391;SDS011;14572;43.120;1.178;2022-12-18T11:59:44;12.75;;;4.85;;
26391;SDS011;14572;43.120;1.178;2022-12-18T12:02:24;6.35;;;3.90;;
26391;SDS011;14572;43.120;1.178;2022-12-18T12:05:05;8.40;;;4.72;;
26391;SDS011;14572;43.120;1.178;2022-12-18T12:07:47;6.72;;;4.30;;
26391;SDS011;14572;43.120;1.178;2022-12-18T12:10:25;7.22;;;4.78;;
26391;SDS011;14572;43.120;1.178;2022-12-18T12:12:59;7.25;;;4.47;;
26391;SDS011;14572;43.120;1.178;2022-12-18T12:15:36;5.35;;;3.88;;
26391;SDS011;14572;43.120;1.178;2022-12-18T12:18:12;6.35;;;4.30;;
26391;SDS011;14572;43.120;1.178;2022-12-18T12:20:48;7.30;;;4.25;;
26391;SDS011;14572;43.120;1.178;2022-12-18T12:23:20;8.40;;;5.07;;
26391;SDS011;14572;43.120;1.178;2022-12-18T12:25:52;6.40;;;4.18;;
26391;SDS011;14572;43.120;1.178;2022-12-18T12:28:25;7.93;;;5.00;;
26391;SDS011;14572;43.120;1.178;2022-12-18T12:31:04;6.78;;;4.25;;
26391;SDS011;14572;43.120;1.178;2022-12-18T12:33:39;7.75;;;4.35;;
26391;SDS011;14572;43.120;1.178;2022-12-18T12:36:12;7.07;;;4.85;;
26391;SDS011;14572;43.120;1.178;2022-12-18T12:38:44;8.10;;;4.13;;
26391;SDS011;14572;43.120;1.178;2022-12-18T12:41:16;7.80;;;4.60;;
26391;SDS011;14572;43.120;1.178;2022-12-18T12:44:03;6.18;;;4.45;;
26391;SDS011;14572;43.120;1.178;2022-12-18T12:46:33;6.13;;;3.78;;
26391;SDS011;14572;43.120;1.178;2022-12-18T12:49:05;5.47;;;3.58;;
26391;SDS011;14572;43.120;1.178;2022-12-18T12:51:37;8.98;;;4.22;;
26391;SDS011;14572;43.120;1.178;2022-12-18T12:54:09;6.20;;;4.40;;
26391;SDS011;14572;43.120;1.178;2022-12-18T12:56:42;5.88;;;3.70;;
26391;SDS011;14572;43.120;1.178;2022-12-18T12:59:13;6.85;;;4.07;;
26391;SDS011;14572;43.120;1.178;2022-12-18T13:01:47;6.05;;;3.92;;
26391;SDS011;14572;43.120;1.178;2022-12-18T13:04:20;6.50;;;4.20;;
26391;SDS011;14572;43.120;1.178;2022-12-18T13:06:52;4.85;;;3.60;;
26391;SDS011;14572;43.120;1.178;2022-12-18T13:09:21;7.25;;;4.15;;
26391;SDS011;14572;43.120;1.178;2022-12-18T13:11:49;6.60;;;4.40;;
26391;SDS011;14572;43.120;1.178;2022-12-18T13:14:33;5.18;;;3.22;;
26391;SDS011;14572;43.120;1.178;2022-12-18T13:17:22;6.85;;;3.67;;
26391;SDS011;14572;43.120;1.178;2022-12-18T13:20:04;9.23;;;4.30;;
26391;SDS011;14572;43.120;1.178;2022-12-18T13:22:34;5.25;;;3.63;;
26391;SDS011;14572;43.120;1.178;2022-12-18T13:25:03;7.10;;;3.88;;
26391;SDS011;14572;43.120;1.178;2022-12-18T13:28:00;5.05;;;3.47;;
26391;SDS011;14572;43.120;1.178;2022-12-18T13:30:42;8.73;;;4.43;;
26391;SDS011;14572;43.120;1.178;2022-12-18T13:45:35;5.43;;;3.72;;
26391;SDS011;14572;43.120;1.178;2022-12-18T13:48:05;5.47;;;3.50;;
26391;SDS011;14572;43.120;1.178;2022-12-18T13:50:37;8.57;;;3.75;;
26391;SDS011;14572;43.120;1.178;2022-12-18T13:53:12;5.07;;;3.50;;
26391;SDS011;14572;43.120;1.178;2022-12-18T13:55:44;5.93;;;3.90;;
26391;SDS011;14572;43.120;1.178;2022-12-18T13:58:12;5.65;;;3.42;;
26391;SDS011;14572;43.120;1.178;2022-12-18T14:00:40;6.43;;;3.33;;
26391;SDS011;14572;43.120;1.178;2022-12-18T14:03:15;5.32;;;3.42;;
26391;SDS011;14572;43.120;1.178;2022-12-18T14:05:44;5.05;;;3.13;;
26391;SDS011;14572;43.120;1.178;2022-12-18T14:08:14;6.72;;;3.85;;
26391;SDS011;14572;43.120;1.178;2022-12-18T14:10:42;5.80;;;3.42;;
26391;SDS011;14572;43.120;1.178;2022-12-18T14:13:14;5.05;;;3.50;;
26391;SDS011;14572;43.120;1.178;2022-12-18T14:15:44;6.18;;;3.75;;
26391;SDS011;14572;43.120;1.178;2022-12-18T14:18:17;7.43;;;3.33;;
26391;SDS011;14572;43.120;1.178;2022-12-18T14:20:48;7.05;;;3.65;;
26391;SDS011;14572;43.120;1.178;2022-12-18T14:23:27;9.52;;;3.75;;
26391;SDS011;14572;43.120;1.178;2022-12-18T14:25:56;8.77;;;3.42;;
26391;SDS011;14572;43.120;1.178;2022-12-18T14:28:24;7.00;;;3.97;;
26391;SDS011;14572;43.120;1.178;2022-12-18T14:30:53;6.45;;;3.90;;
26391;SDS011;14572;43.120;1.178;2022-12-18T14:33:22;7.88;;;3.60;;
26391;SDS011;14572;43.120;1.178;2022-12-18T14:35:54;6.20;;;3.65;;
26391;SDS011;14572;43.120;1.178;2022-12-18T14:38:39;6.78;;;3.83;;
26391;SDS011;14572;43.120;1.178;2022-12-18T14:41:09;5.90;;;3.88;;
26391;SDS011;14572;43.120;1.178;2022-12-18T14:43:38;7.60;;;3.70;;
26391;SDS011;14572;43.120;1.178;2022-12-18T14:46:24;9.27;;;3.78;;
26391;SDS011;14572;43.120;1.178;2022-12-18T14:48:53;5.47;;;3.80;;
26391;SDS011;14572;43.120;1.178;2022-12-18T14:51:22;7.25;;;3.85;;
26391;SDS011;14572;43.120;1.178;2022-12-18T14:53:54;10.75;;;4.85;;
26391;SDS011;14572;43.120;1.178;2022-12-18T14:56:22;7.05;;;3.97;;
26391;SDS011;14572;43.120;1.178;2022-12-18T14:58:52;12.10;;;4.40;;
26391;SDS011;14572;43.120;1.178;2022-12-18T15:01:21;7.22;;;4.38;;
26391;SDS011;14572;43.120;1.178;2022-12-18T15:03:51;8.38;;;4.63;;
26391;SDS011;14572;43.120;1.178;2022-12-18T15:06:24;7.85;;;3.92;;
26391;SDS011;14572;43.120;1.178;2022-12-18T15:08:57;7.78;;;3.67;;
26391;SDS011;14572;43.120;1.178;2022-12-18T15:11:28;7.57;;;4.00;;
26391;SDS011;14572;43.120;1.178;2022-12-18T15:14:00;8.70;;;4.28;;